x

9439040 - Astoria, Or (asto3) Weather Station

4:54 - Thu 30th Mar 2017 All times are PDT. -7 hours from GMT.

  • Wind
    15mph, 18mph gusts
  • Sea Temp 46°f
  • Luft Temp 46°f
  • Sea Pressure 1021mb
  • 9439040 - Astoria, Or
  • 9439040 - Astoria, Or

More Historic Weather Station data

Upgrade to MSW Pro to gain access to the past 30 days of data for over 8000 Wavebouys and Weather Stations around the globe.

Join Pro

Comparision Forecast

View Surf forecast
   
Do 03/30 4:54 15 18 mph 1021mb 46f 46f
4:48 7 9 mph 1020.7mb 46f 46f
4:42 7 8 mph 1020.6mb 46f 46f
4:36 5 8 mph 1020.5mb 47f 46f
4:30 6 8 mph 1020.5mb 47f 46f
4:24 7 10 mph 1020.5mb 47f 46f
4:18 6 8 mph 1020.4mb 47f 46f
4:12 5 9 mph 1020.3mb 47f 45f
4:06 7 9 mph 1020.4mb 47f 45f
4:00 6 8 mph 1020.5mb 47f 45f
3:54 5 8 mph 1020.5mb 47f 45f
3:48 6 7 mph 1020.5mb 47f 45f
3:42 5 6 mph 1020.3mb 47f 45f
3:36 3 5 mph 1020.4mb 47f 45f
3:30 2
mph
1020.4mb 47f 45f
3:24 1 2 mph 1020.3mb 47f 45f
3:18 2 5 mph 1020.3mb 47f 45f
3:12 5 6 mph 1020.5mb 47f 45f
3:06 6 7 mph 1020.5mb 47f 45f
3:00 5 6 mph 1020.5mb 47f 45f
2:54 6 8 mph 1020.3mb 47f 45f
2:48 7 11 mph 1020.2mb 47f 45f
2:42 9 13 mph 1020.3mb 47f 45f
2:36 11 14 mph 1020.4mb 47f 45f
2:30 11 14 mph 1020.6mb 47f 46f
2:24 8 9 mph 1020.3mb 47f 46f
2:18 8 10 mph 1020.4mb 47f 46f
2:12 8 14 mph 1020.2mb 47f 46f
2:06 10 14 mph 1020.3mb 47f 46f
2:00 11 18 mph 1020.2mb 47f 45f
1:54 9 14 mph 1020.2mb 47f 46f
1:48 6 9 mph 1020.1mb 47f 47f
1:42 6 9 mph 1020mb 47f 47f
1:36 8 11 mph 1019.9mb 47f 47f
1:30 11 15 mph 1019.8mb 47f 47f
1:24 13 15 mph 1019.8mb 47f 46f
1:18 14 16 mph 1019.7mb 47f 46f
1:12 13 15 mph 1019.7mb 47f 46f
1:06 11 13 mph 1019.6mb 47f 47f
1:00 8 11 mph 1019.6mb 47f 47f
12:54 8 10 mph 1019.6mb 47f 46f
12:48 8 9 mph 1019.6mb 47f 46f
12:42 9 13 mph 1019.5mb 47f 47f
12:36 13 14 mph 1019.4mb 47f 47f
12:30 10 14 mph 1019.3mb 47f 47f
12:24 8 14 mph 1019.2mb 47f 46f
12:18 10 14 mph 1019.1mb 47f 46f
12:12 10 13 mph 1019mb 47f 46f
12:06 9 10 mph 1019mb 47f 46f
12:00 8 11 mph 1019mb 47f 46f
Mi 03/29 11:54 9 13 mph 1019mb 47f 46f
11:48 13 15 mph - - -
11:42 9 11 mph - - -
11:36 9 13 mph - - -
11:30 9 16 mph 1019mb 47f 46f
11:24 14 16 mph 1019mb 47f 46f
11:18 6 8 mph 1018.9mb 47f 46f
11:12 6 7 mph 1018.8mb 47f 46f
11:06 6 8 mph 1018.8mb 47f 46f
11:00 7 8 mph 1018.8mb 47f 46f
10:54 6 8 mph 1018.7mb 47f 46f
10:48 7 9 mph 1018.8mb 47f 46f
10:42 8 9 mph 1018.8mb 47f 46f
10:36 8 10 mph 1018.8mb 47f 46f
10:30 8 9 mph 1018.8mb 47f 46f
10:24 8 10 mph 1018.8mb 47f 46f
10:18 8 9 mph 1018.7mb 47f 46f
10:12 8 10 mph 1018.7mb 47f 46f
10:06 9 10 mph 1018.6mb 47f 46f
10:00 7 11 mph 1018.6mb 46f 46f
9:54 8 10 mph 1018.6mb 46f 46f
9:48 8 10 mph 1018.6mb 46f 46f
9:42 9 13 mph 1018.6mb 46f 46f
9:36 11 14 mph 1018.5mb 46f 46f
9:30 9 11 mph 1018.3mb 46f 46f
9:24 10 14 mph 1018.3mb 46f 46f
9:18 11 14 mph 1018.2mb 46f 46f
9:12 7 9 mph 1018.2mb 46f 46f
9:06 6 7 mph 1018.1mb 46f 46f
9:00 5 7 mph 1018.1mb 46f 46f
8:54 5 7 mph 1018.1mb 46f 46f
8:48 6 7 mph 1018.1mb 46f 46f
8:42 6 8 mph 1018mb 46f 46f
8:36 6 8 mph 1018mb 46f 46f
8:30 7 10 mph 1018mb 46f 46f
8:24 8 9 mph 1018mb 46f 46f
8:18 9 13 mph 1018mb 46f 46f
8:12 9 11 mph 1017.9mb 46f 46f
8:06 8 11 mph 1017.8mb 46f 46f
8:00 9 13 mph 1017.8mb 46f 46f
7:54 11 14 mph 1017.8mb 46f 46f
7:48 11 16 mph 1017.8mb 46f 46f
7:42 13 20 mph 1017.8mb 46f 46f
7:36 14 16 mph 1017.8mb 46f 46f
7:30 11 15 mph 1017.7mb 46f 47f
7:24 11 14 mph 1017.7mb 46f 47f
7:18 9 11 mph 1017.6mb 46f 47f
7:12 8 11 mph 1017.5mb 46f 47f
7:06 9 10 mph 1017.5mb 46f 47f
7:00 7 9 mph 1017.4mb 46f 47f
6:54 7 11 mph 1017.3mb 46f 47f
6:48 6 11 mph 1017.3mb 46f 47f
6:42 8 14 mph 1017.3mb 46f 47f
6:36 10 14 mph 1017.2mb 46f 47f
6:30 10 14 mph 1017.2mb 47f 47f
6:24 13 14 mph 1017.2mb 47f 47f
6:18 9 11 mph 1017.2mb 47f 47f
6:12 8 10 mph 1017.2mb 47f 47f
6:06 6 9 mph 1017mb 47f 47f
6:00 7 10 mph 1017.1mb 47f 47f
5:54 7 9 mph 1017mb 47f 47f
5:48 8 13 mph 1017mb 47f 47f
5:42 10 15 mph 1017mb 47f 47f
5:36 11 18 mph 1017mb 47f 46f
5:30 13 15 mph 1017mb 47f 47f
5:24 13 16 mph 1016.9mb 47f 47f
5:18 14 16 mph 1016.9mb 47f 47f
5:12 10 14 mph 1016.9mb 47f 47f
5:06 14 16 mph 1016.8mb 46f 47f
5:00 11 14 mph 1016.7mb 46f 48f
4:54 9 14 mph 1016.7mb 46f 47f
4:48 8 13 mph 1016.7mb 46f 47f
4:42 9 10 mph 1016.6mb 46f 47f
4:36 8 10 mph 1016.6mb 46f 47f
4:30 8 16 mph 1016.6mb 46f 47f
4:24 15 18 mph 1016.6mb 46f 47f
4:18 14 16 mph 1016.5mb 47f 47f
4:12 10 14 mph 1016.4mb 47f 48f
4:06 10 15 mph 1016.3mb 47f 48f
4:00 11 16 mph 1016.3mb 47f 47f
3:54 14 18 mph 1016.2mb 47f 48f
3:48 14 17 mph 1016.1mb 47f 49f
3:42 14 16 mph 1016mb 47f 49f
3:36 15 21 mph 1015.9mb 47f 49f
3:30 16 21 mph 1015.9mb 47f 49f
3:24 14 17 mph 1015.9mb 47f 49f
3:18 14 17 mph 1015.8mb 47f 49f
3:12 14 17 mph 1015.8mb 47f 49f
3:06 14 17 mph 1015.8mb 47f 49f
3:00 13 17 mph 1015.7mb 47f 49f
2:54 14 17 mph 1015.6mb 47f 49f
2:48 14 17 mph 1015.6mb 47f 49f
2:42 15 18 mph 1015.6mb 47f 49f
2:36 14 21 mph 1015.6mb 47f 48f
2:30 17 23 mph 1015.7mb 47f 48f
2:24 17 22 mph 1015.5mb 47f 49f
2:18 14 21 mph 1015.5mb 47f 49f
2:12 17 22 mph 1015.5mb 47f 49f
2:06 15 21 mph 1015.4mb 47f 49f
2:00 14 21 mph 1015.4mb 47f 49f
1:54 18 23 mph 1015.4mb 47f 49f
1:48 15 21 mph 1015.3mb 47f 49f
1:42 15 20 mph 1015.3mb 47f 49f
1:36 14 18 mph 1015.2mb 47f 49f
1:30 17 23 mph 1015mb 47f 49f
1:24 16 22 mph 1015mb 47f 49f
1:18 16 20 mph 1015mb 47f 49f
1:12 18 24 mph 1014.9mb 47f 49f
1:06 16 24 mph 1014.8mb 47f 49f
1:00 22 25 mph 1014.7mb 47f 49f
12:54 20 28 mph 1014.6mb 47f 50f
12:48 18 23 mph 1014.4mb 47f 50f
12:42 17 24 mph 1014.3mb 47f 50f
12:36 20 23 mph 1014.2mb 47f 50f
12:30 18 24 mph 1014.2mb 47f 50f
12:24 16 24 mph 1014.2mb 47f 50f
12:18 16 26 mph 1014.1mb 46f 50f
12:12 16 25 mph 1014.1mb 46f 50f
12:06 15 29 mph 1014.1mb 46f 50f
12:00 23 31 mph 1014mb 46f 51f
11:54 17 25 mph 1014mb 46f 51f
11:48 15 30 mph 1013.9mb 46f 51f
11:42 21 32 mph 1013.8mb 46f 51f
11:36 15 30 mph 1013.7mb 46f 51f
11:30 17 31 mph 1013.6mb 46f 51f
11:24 21 29 mph 1013.6mb 46f 51f
11:18 16 24 mph 1013.5mb 46f 51f
11:12 26 31 mph 1013.4mb 46f 51f
11:06 24 31 mph 1013.3mb 46f 51f
11:00 21 32 mph 1013.1mb 47f 51f
10:54 23 37 mph 1012.8mb 47f 52f
10:48 22 30 mph 1012.7mb 47f 52f
10:42 15 29 mph 1012.7mb 47f 52f
10:36 23 31 mph 1012.7mb 47f 52f
10:30 22 30 mph 1012.6mb 47f 52f
10:24 18 25 mph 1012.5mb 47f 52f
10:18 23 34 mph 1012.6mb 47f 52f
10:12 26 36 mph 1012.5mb 47f 53f
10:06 20 34 mph 1012.4mb 47f 52f
10:00 22 29 mph 1012.3mb 46f 52f
9:54 20 33 mph 1012.2mb 47f 53f
9:48 21 29 mph 1012mb 46f 53f
9:42 22 28 mph 1012mb 46f 53f
9:36 16 24 mph 1012mb 46f 52f
9:30 15 25 mph 1011.9mb 46f 52f
9:24 15 22 mph 1011.9mb 46f 52f
9:18 17 26 mph 1012mb 46f 52f
9:12 18 33 mph 1011.8mb 46f 52f
9:06 17 29 mph 1011.7mb 46f 52f
9:00 16 28 mph 1011.8mb 46f 52f
8:54 18 26 mph 1011.8mb 46f 53f
8:48 16 26 mph 1011.7mb 46f 53f
8:42 17 30 mph 1011.7mb 46f 53f
8:36 14 24 mph 1011.7mb 46f 52f
8:30 16 29 mph 1011.8mb 46f 52f
8:24 17 25 mph 1011.8mb 46f 52f
8:18 16 31 mph 1011.9mb 46f 52f
8:12 15 26 mph 1012mb 46f 52f
8:06 11 25 mph 1011.9mb 46f 52f
8:00 18 31 mph 1012mb 46f 52f
7:54 14 22 mph 1012.1mb 46f 52f
7:48 15 22 mph 1012.2mb 46f 52f
7:42 16 33 mph 1012.3mb 46f 52f
7:36 16 26 mph 1012.2mb 46f 52f
7:30 16 24 mph 1012.1mb 46f 52f
7:24 13 24 mph 1012.2mb 46f 52f
7:18 16 23 mph 1012.2mb 46f 52f
7:12 14 30 mph 1012.2mb 46f 52f
7:06 18 32 mph 1012.1mb 46f 53f
7:00 18 30 mph 1012.1mb 46f 53f
6:54 16 30 mph 1012.1mb 46f 52f
6:48 17 29 mph 1012.2mb 46f 53f
6:42 15 25 mph 1012.1mb 46f 52f
6:36 20 30 mph 1012.1mb 46f 53f
6:30 20 29 mph 1012mb 46f 53f
6:24 14 38 mph 1011.9mb 46f 53f
6:18 14 25 mph 1012.1mb 46f 53f
6:12 16 26 mph 1012.1mb 46f 52f
6:06 17 24 mph 1012.2mb 46f 52f
6:00 16 23 mph 1012mb 46f 52f
5:54 15 25 mph 1012.2mb 46f 52f
5:48 13 20 mph 1012.4mb 46f 52f
5:42 6 10 mph 1012.6mb 46f 47f
5:36 7 13 mph 1012.7mb 46f 47f
5:30 8 14 mph 1012.5mb 46f 47f
5:24 6 9 mph 1012.7mb 46f 47f
5:18 6 10 mph 1012.7mb 46f 46f
5:12 8 14 mph 1012.7mb 46f 47f
5:06 10 15 mph 1012.7mb 46f 47f
5:00 6 9 mph 1012.8mb 46f 46f
4:54 3 7 mph 1013.1mb 46f 46f
4:48  -  7 mph 1013.2mb 46f 46f
4:42 5 8 mph 1013.3mb 46f 46f
4:36 1 7 mph 1013.3mb 46f 46f
4:30 6 14 mph 1013.3mb 46f 46f
4:24 6 13 mph 1013.4mb 46f 45f
4:18 6 16 mph 1013.7mb 46f 45f
4:12 10 15 mph 1014.2mb 46f 45f
4:06 14 18 mph 1014.2mb 46f 45f
4:00 14 18 mph 1014.4mb 46f 45f
3:54 11 14 mph 1014.4mb 46f 45f
3:48 8 11 mph 1014.2mb 46f 45f
3:42 5 8 mph 1014.2mb 46f 45f
3:36 3 9 mph 1014.5mb 46f 45f
3:30 5 8 mph 1014.9mb 46f 45f
3:24 3 7 mph 1014.8mb 46f 45f
3:18 3 10 mph 1014.9mb 46f 45f
3:12 6 8 mph 1014.9mb 46f 45f
3:06 5 10 mph 1015.1mb 46f 45f
3:00 6 9 mph 1015.2mb 46f 45f
2:54 3 7 mph 1015.4mb 46f 45f
2:48 2 7 mph 1015.3mb 46f 45f
2:42 3 6 mph 1015.5mb 46f 45f
2:36 3 6 mph 1015.7mb 46f 45f
2:30 2 5 mph 1015.8mb 46f 45f
2:24 3 10 mph 1016mb 46f 45f
2:18 3 13 mph 1016.3mb 46f 45f
2:12 6 10 mph 1016.6mb 46f 45f
2:06 8 10 mph 1016.6mb 46f 45f
2:00 5 10 mph 1016.7mb 46f 45f
1:54 3 10 mph 1016.7mb 46f 45f
1:48 3 7 mph 1016.9mb 46f 45f
1:42 3 6 mph 1017.3mb 46f 45f
1:36 2 6 mph 1017.6mb 46f 45f
1:30 2 6 mph 1017.7mb 46f 45f
1:24 3 8 mph 1017.8mb 46f 45f
1:18 2 6 mph 1018.1mb 46f 45f
1:12 3 6 mph 1018.2mb 46f 45f
1:06 2 5 mph 1018.5mb 46f 45f
1:00 2 5 mph 1018.6mb 46f 45f
12:54 2 6 mph 1018.8mb 46f 45f
12:48 2 5 mph 1019mb 46f 45f
12:42 3 6 mph 1019.1mb 46f 45f
12:36 2 7 mph 1019.2mb 46f 45f
12:30 3 8 mph 1019.3mb 46f 45f
12:24 5 8 mph 1019.3mb 46f 46f
12:18 3 8 mph 1019.5mb 46f 46f
12:12 3 7 mph 1019.5mb 46f 46f
12:06 3 8 mph 1019.5mb 46f 46f
12:00 1 3 mph 1019.6mb 46f 46f
Di 03/28 11:54 1 6 mph 1019.6mb 46f 46f
11:48 1 6 mph 1019.7mb 46f 46f
11:42 1 5 mph 1019.9mb 46f 46f
11:36  -  5 mph 1020.1mb 46f 46f
11:30 1 5 mph 1020.2mb 46f 46f
11:24 3 7 mph 1020.3mb 46f 46f
11:18 7 9 mph 1020.5mb 46f 47f
11:12 6 13 mph 1020.5mb 46f 47f
11:06 7 14 mph 1020.6mb 46f 47f
11:00 7 14 mph 1020.7mb 46f 47f
10:54 7 11 mph 1020.8mb 46f 47f
10:48 8 17 mph 1021mb 46f -
10:42 8 13 mph 1021mb 46f -
10:36 10 15 mph 1021.2mb 46f -
10:30 7 17 mph 1021.3mb 46f 48f
10:24 8 11 mph 1021.4mb 46f 48f
10:18 7 14 mph 1021.4mb 46f 48f
10:12 8 13 mph 1021.5mb 46f 48f
10:06 6 11 mph 1021.6mb 46f 48f
10:00 6 9 mph 1021.7mb 46f 48f
9:54 5 7 mph 1021.8mb 46f 48f
9:48 2 6 mph 1021.9mb 46f 48f
9:42 2 5 mph 1021.9mb 46f 48f
9:36 3 6 mph 1022mb 46f 48f
9:30 3 8 mph 1021.9mb 46f 48f
9:24 2 5 mph 1021.9mb 46f 48f
9:18 2 5 mph 1021.9mb 46f 48f
9:12 3 5 mph 1021.9mb 46f 48f
9:06 2 5 mph 1022mb 46f 48f
9:00 2 3 mph 1022.1mb 46f 48f
8:54 1 3 mph 1022.1mb 46f 48f
8:48 2 3 mph 1022.1mb 46f 48f
8:42 2 3 mph 1022.1mb 46f 48f
8:36 2 5 mph 1022.1mb 46f 48f
8:30 2 7 mph 1022.1mb 46f 49f
8:24 6 8 mph 1022mb 46f 50f
8:18 2 5 mph 1022.1mb 46f 49f
8:12 5 7 mph 1022.1mb 46f 49f
8:06 1 3 mph 1022.1mb 46f 50f
8:00 2 6 mph 1022.2mb 46f 50f
7:54 5 7 mph 1022.3mb 46f 51f
7:48 7 9 mph 1022.3mb 46f 51f
7:42 8 13 mph 1022.3mb 46f 51f
7:36 8 13 mph 1022.5mb 46f 51f
7:30 9 13 mph 1022.5mb 46f 51f
7:24 8 11 mph 1022.5mb 46f 51f
7:18 7 15 mph 1022.6mb 46f 51f
7:12 6 11 mph 1022.7mb 46f 51f
7:06 6 10 mph 1022.7mb 46f 51f
7:00 8 13 mph 1022.7mb 46f 51f
6:54 8 16 mph 1022.7mb 46f 51f
6:48 7 9 mph 1022.7mb 46f 51f
6:42 5 9 mph 1022.9mb 46f 51f
6:36 7 11 mph 1022.9mb 46f 51f
6:30 7 14 mph 1022.9mb 46f 51f
6:24 8 16 mph 1022.8mb 46f 51f
6:18 7 13 mph 1022.9mb 46f 51f
6:12 7 10 mph 1023mb 46f 51f
6:06 3 6 mph 1023mb 46f 51f
6:00 5 7 mph 1023mb 46f 51f
5:54 5 7 mph 1022.9mb 46f 51f
5:48 6 8 mph 1023mb 46f 51f
5:42 6 9 mph 1023mb 46f 51f
5:36 5 10 mph 1023mb 46f 51f
5:30 7 10 mph 1022.9mb 46f 51f
5:24 6 8 mph 1022.9mb 46f 51f
5:18 5 15 mph 1022.9mb 47f 51f
5:12 2 11 mph 1022.9mb 47f 51f
5:06 6 9 mph 1022.9mb 47f 51f
5:00 8 11 mph 1022.9mb 47f 51f
4:54 7 9 mph 1023mb 47f 51f
4:48 1 5 mph 1023.1mb 47f 51f
4:42 2 6 mph 1023.2mb 46f 51f
4:36 5 7 mph 1023.1mb 46f 50f
4:30 7 11 mph 1023.1mb 46f 50f
4:24 5 11 mph 1023.2mb 46f 50f
4:18 10 15 mph 1023.2mb 46f 50f
4:12 8 17 mph 1023.2mb 46f 50f
4:06 14 21 mph 1023.4mb 46f 50f
4:00 11 25 mph 1023.3mb 46f 50f
3:54 16 30 mph 1023.5mb 46f 50f
3:48 15 25 mph 1023.5mb 46f 50f
3:42 14 20 mph 1023.5mb 46f 51f
3:36 11 18 mph 1023.5mb 46f 51f
3:30 13 24 mph 1023.6mb 46f 51f
3:24 14 23 mph 1023.5mb 46f 52f
3:18 17 29 mph 1023.4mb 47f 52f
3:12 14 23 mph 1023.3mb 47f 52f
3:06 13 20 mph 1023.4mb 47f 52f
3:00 17 22 mph 1023.3mb 47f 51f
2:54 11 17 mph 1023.3mb 47f 51f
2:48 14 23 mph 1023.3mb 47f 51f
2:42 10 20 mph 1023.5mb 47f 51f
2:36 10 18 mph 1023.6mb 47f 51f
2:30 15 22 mph 1023.5mb 47f 51f
2:24 14 24 mph 1023.5mb 47f 51f
2:18 18 28 mph 1023.7mb 47f 51f
2:12 13 26 mph 1023.7mb 47f 51f
2:06 10 28 mph 1023.6mb 47f 51f
2:00 9 22 mph 1023.6mb 47f 52f
1:54 14 20 mph 1023.8mb 47f 52f
1:48 10 24 mph 1023.8mb 47f 52f
1:42 13 17 mph 1023.8mb 47f 52f
1:36 14 23 mph 1023.8mb 47f 52f
1:30 16 24 mph 1023.9mb 47f 52f
1:24 14 18 mph 1023.9mb 47f 52f
1:18 14 22 mph 1024mb 47f 52f
1:12 17 24 mph 1024mb 47f 52f
1:06 11 21 mph 1024mb 47f 52f
1:00 17 25 mph 1024mb 47f 52f
12:54 14 22 mph 1024.1mb 47f 52f
12:48 14 21 mph 1024.1mb 47f 52f
12:42 9 17 mph 1024.1mb 47f 52f
12:36 11 18 mph 1024.2mb 47f 52f
12:30 11 18 mph 1024.3mb 47f 52f
12:24 11 21 mph 1024.3mb 47f 52f
12:18 16 22 mph 1024.2mb 47f 52f
12:12 14 23 mph 1024.2mb 47f 52f
12:06 16 23 mph 1024.2mb 47f 52f
12:00 13 21 mph 1024.2mb 47f 52f
11:54 15 20 mph 1024.3mb 46f 52f
11:48 14 23 mph 1024.4mb 46f 52f
11:42 21 25 mph 1024.3mb 46f 52f
11:36 14 24 mph 1024.3mb 46f 51f
11:30 14 25 mph 1024.5mb 46f 51f
11:24 14 23 mph 1024.5mb 46f 51f
11:18 17 25 mph 1024.4mb 46f 51f
11:12 17 23 mph 1024.4mb 46f 51f
11:06 17 23 mph 1024.5mb 46f 51f
11:00 15 25 mph 1024.7mb 46f 51f
10:54 16 23 mph 1024.8mb 46f 51f
10:48 13 22 mph 1024.8mb 46f 51f
10:42 13 17 mph 1024.7mb 46f 51f
10:36 8 15 mph 1024.6mb 46f 51f
10:30 5 9 mph 1024.6mb 46f 50f
10:24 7 10 mph 1024.3mb 46f 49f
10:18 3 11 mph 1024.3mb 46f 49f
10:12 5 9 mph 1024.4mb 46f 50f
10:06 7 10 mph 1024.3mb 46f 50f
10:00 9 14 mph 1024.4mb 46f 50f
9:54 6 9 mph 1024.2mb 47f 50f
9:48 2 7 mph 1024.3mb 47f 50f
9:42 6 10 mph 1024.1mb 47f 49f
9:36 5 6 mph 1024mb 47f 48f
9:30 2 6 mph 1024mb 47f 48f
9:24 3 6 mph 1024.1mb 47f 47f
9:18 5 6 mph 1024mb 47f 46f
9:12 5 7 mph 1023.9mb 47f 46f
9:06 7 9 mph 1023.7mb 47f 46f
9:00 6 7 mph 1024.1mb 47f 46f
8:54 6 9 mph 1024.2mb 46f 46f
8:48 6 8 mph 1024.1mb 46f 46f
8:42 7 10 mph 1023.9mb 46f 46f
8:36 6 10 mph 1024.1mb 46f 47f
8:30 5 8 mph 1023.8mb 46f 49f
8:24 9 13 mph 1023.8mb 46f 49f
8:18 7 14 mph 1023.7mb 46f 49f
8:12 9 13 mph 1023.8mb 46f 49f
8:06 9 14 mph 1023.8mb 46f 49f
8:00 10 15 mph 1023.7mb 46f 49f
7:54 11 17 mph 1023.4mb 46f 49f
7:48 14 20 mph 1023.3mb 46f 49f
7:42 11 22 mph 1023.5mb 46f 49f
7:36 13 21 mph 1023.6mb 46f 49f
7:30 14 21 mph 1023.6mb 46f 49f
7:24 13 16 mph 1023.7mb 46f 49f
7:18 14 20 mph 1023.7mb 46f 49f
7:06 9 15 mph 1023.8mb 46f 48f
7:00 9 16 mph 1023.8mb 46f 48f
6:54 9 16 mph 1023.7mb 46f 48f
6:36 10 16 mph 1023.6mb 46f 48f
6:30 11 18 mph 1023.6mb 46f 48f
6:18 13 16 mph 1023.4mb 46f 48f
6:12 14 21 mph 1023.6mb 46f 48f
6:06 11 18 mph 1023.6mb 46f 48f
6:00 10 15 mph 1023.6mb 46f 48f
5:54 9 15 mph 1023.8mb 46f 48f
5:42 8 13 mph 1023.8mb 46f 48f
5:36 8 11 mph 1023.9mb 47f 48f
5:30 7 13 mph 1023.9mb 47f 48f
5:24 8 13 mph 1023.9mb 47f 48f
5:18 9 14 mph 1024mb 47f 47f
5:12 9 13 mph 1024mb 47f 48f
5:06 8 13 mph 1024mb 47f 48f
5:00 6 9 mph 1024.1mb 47f 47f
4:54 6 9 mph 1024.1mb 47f 47f
4:48 5 7 mph 1024.3mb 47f 47f
4:42 6 8 mph 1024.2mb 47f 47f
4:36 3 7 mph 1024.1mb 47f 47f
4:30 7 9 mph 1024.1mb 47f 47f
4:24 2 6 mph 1024.2mb 47f 46f
4:18 5 7 mph 1024.1mb 46f 47f
4:12 5 6 mph 1024.2mb 46f 47f
4:06 3 6 mph 1024.2mb 46f 47f
4:00 3 6 mph 1024.3mb 47f 46f
3:54 2 7 mph 1024.2mb 46f 46f
3:48 2 3 mph 1024.1mb 46f 46f
3:42 2 5 mph 1024.1mb 46f 45f
3:36 2 3 mph 1024mb 47f 46f
3:30 2 5 mph 1024.1mb 47f 46f
3:24 3 6 mph 1024.1mb 47f 46f
3:18 3 7 mph 1024.2mb 47f 46f
3:12 6 8 mph 1024.4mb 47f 46f
3:06 5 8 mph 1024.6mb 47f 46f
3:00 7 10 mph 1024.6mb 47f 46f
2:54 6 8 mph 1024.7mb 47f 46f
2:48 7 10 mph 1024.5mb 47f 46f
2:42 8 11 mph 1024.5mb 47f 46f
2:36 7 11 mph 1024.6mb 47f 46f
2:30 6 11 mph 1024.8mb 47f 46f
2:24 6 10 mph 1024.8mb 47f 46f
2:18 7 10 mph 1024.9mb 47f 46f
2:12 6 8 mph 1025.1mb 47f 46f
2:06 7 10 mph 1025.2mb 47f 46f
2:00 7 11 mph 1025.2mb 47f 46f
1:54 7 9 mph 1025.2mb 47f 46f
1:48 6 9 mph 1025.1mb 47f 46f
1:42 6 11 mph 1025.1mb 47f 46f
1:36 8 10 mph 1025.2mb 47f 46f
1:30 6 7 mph 1025.3mb 47f 45f
1:24 6 8 mph 1025.3mb 47f 45f
1:18 7 10 mph 1025.3mb 47f 46f
1:12 7 8 mph 1025.3mb 47f 45f
1:06 7 9 mph 1025.4mb 47f 46f
1:00 6 9 mph 1025.4mb 47f 45f
12:54 7 8 mph 1025.5mb 47f 45f
12:48 6 8 mph 1025.4mb 47f 46f
12:42 6 8 mph 1025.6mb 47f 46f
12:36 7 10 mph 1025.5mb 47f 46f
12:30 6 7 mph 1025.4mb 47f 46f
12:24 6 8 mph 1025.4mb 47f 46f
12:18 6 13 mph 1025.5mb 47f 46f
12:12 7 11 mph 1025.7mb 47f 46f
12:06 8 11 mph 1025.7mb 47f 46f
12:00 9 13 mph 1025.7mb 47f 46f
Mo 03/27 11:54 9 14 mph 1025.8mb 47f 46f
11:48 10 15 mph 1025.6mb 47f 46f
11:42 9 13 mph 1025.7mb 47f 46f
11:36 7 10 mph 1025.9mb 47f 46f
11:30 9 15 mph 1025.9mb 47f 46f
11:24 7 14 mph 1025.9mb 47f 46f
11:18 10 14 mph 1025.8mb 47f 46f
11:12 10 14 mph 1025.8mb 47f 46f
11:06 8 11 mph 1025.7mb 47f 46f
11:00 7 14 mph 1025.7mb 47f 46f
10:54 8 17 mph 1025.7mb 47f 46f
10:48 8 11 mph 1025.7mb 47f 46f
10:42 8 18 mph 1025.7mb 47f 46f
10:36 13 17 mph 1025.7mb 47f 46f
10:30 9 10 mph 1025.8mb 47f 46f
10:24 9 14 mph 1025.8mb 47f 46f
10:18 7 11 mph 1025.7mb 47f 46f
10:12 7 10 mph 1025.7mb 47f 46f
10:06 7 10 mph 1025.6mb 47f 46f
10:00 9 14 mph 1025.7mb 47f 46f
9:54 11 18 mph 1025.5mb 47f 46f
9:48 10 14 mph 1025.6mb 47f 46f
9:42 10 16 mph 1025.5mb 47f 46f
9:36 8 14 mph 1025.5mb 47f 46f
9:30 8 10 mph 1025.4mb 47f 45f
9:24 7 10 mph 1025.3mb 47f 45f
9:18 7 10 mph 1025.4mb 47f 45f
9:12 6 9 mph 1025.3mb 47f 46f
9:06 7 10 mph 1025.4mb 47f 46f
9:00 7 9 mph 1025.5mb 47f 46f
8:54 6 8 mph 1025.4mb 47f 46f
8:48 7 8 mph 1025.3mb 47f 46f
8:42 6 13 mph 1025.4mb 47f 46f
8:36 6 11 mph 1025.4mb 47f 46f
8:30 7 13 mph 1025.4mb 47f 46f
8:24 6 9 mph 1025.4mb 47f 46f
8:18 6 15 mph 1025.3mb 47f 46f
8:12 11 15 mph 1025.3mb 47f 46f
8:06 7 13 mph 1025.3mb 46f 46f
8:00 10 15 mph 1025.3mb 46f 46f
7:54 10 14 mph 1025.4mb 46f 46f
7:48 9 14 mph 1025.4mb 46f 46f
7:42 10 14 mph 1025.3mb 46f 46f
7:36 13 18 mph 1025.3mb 47f 46f
7:30 6 8 mph 1025.2mb 46f 46f
7:24 7 9 mph 1025.1mb 46f 46f
7:18 7 9 mph 1025.2mb 46f 46f
7:12 5 8 mph 1025.2mb 47f 46f
7:06 6 8 mph 1025.2mb 47f 47f
7:00 6 10 mph 1025.1mb 47f 47f
6:54 9 13 mph 1024.9mb 47f 47f
6:48 9 11 mph 1024.9mb 46f 47f
6:42 10 14 mph 1024.9mb 46f 47f
6:36 13 17 mph 1024.9mb 46f 47f
6:30 13 14 mph 1024.9mb 46f 47f
6:24 11 14 mph 1024.9mb 46f 47f
6:18 9 15 mph 1024.8mb 46f 47f
6:12 10 15 mph 1024.6mb 46f 47f
6:06 9 15 mph 1024.5mb 46f 46f
6:00 14 16 mph 1024.7mb 46f 46f
5:54 14 24 mph 1024.8mb 46f 46f
5:48 14 22 mph 1024.7mb 46f 47f
5:42 9 16 mph 1024.7mb 46f 47f
5:36 8 14 mph 1024.8mb 46f 47f
5:30 9 11 mph 1024.6mb 46f 47f
5:24 9 13 mph 1024.5mb 46f 47f
5:18 8 15 mph 1024.5mb 46f 47f
5:12 11 15 mph 1024.4mb 46f 47f
5:06 14 18 mph 1024.4mb 46f 47f
5:00 17 21 mph 1024.5mb 46f 47f
4:54 10 13 mph 1024.5mb 46f 47f
4:48 14 16 mph 1024.4mb 47f 46f
4:42 10 15 mph 1024.4mb 47f 47f
4:36 11 15 mph 1024.4mb 47f 46f
4:30 15 20 mph 1024.4mb 47f 46f
4:24 11 13 mph 1024.4mb 47f 47f
4:18 11 17 mph 1024.3mb 47f 48f
4:12 10 16 mph 1024.1mb 47f 48f
4:06 10 14 mph 1024.1mb 47f 48f
4:00 11 17 mph 1024.1mb 47f 48f
3:54 11 16 mph 1024.2mb 47f 48f
3:48 14 17 mph 1024.2mb 47f 47f
3:42 16 22 mph 1024.3mb 46f 47f
3:36 14 23 mph 1024mb 46f 47f
3:30 16 20 mph 1023.9mb 46f 48f
3:24 14 18 mph 1024mb 46f 48f
3:18 14 18 mph 1024.1mb 46f 47f
3:12 14 20 mph 1023.9mb 46f 49f
3:06 15 21 mph 1023.8mb 46f 49f
3:00 14 22 mph 1023.6mb 46f 49f
2:54 14 20 mph 1023.5mb 46f 49f
2:48 15 18 mph 1023.4mb 46f 49f
2:42 14 20 mph 1023.4mb 46f 49f
2:36 15 20 mph 1023.2mb 46f 49f
2:30 15 21 mph 1023.2mb 46f 49f
2:24 10 16 mph 1023.1mb 46f 49f
2:18 14 24 mph 1023mb 46f 49f
2:12 14 20 mph 1022.9mb 46f 49f
2:06 14 22 mph 1022.9mb 46f 49f
2:00 11 16 mph 1022.7mb 46f 49f
1:54 14 20 mph 1022.7mb 46f 49f
1:48 14 18 mph 1022.5mb 46f 49f
1:42 13 16 mph 1022.6mb 46f 48f
1:36 9 17 mph 1022.6mb 46f 48f
1:30 15 21 mph 1022.6mb 46f 47f
1:24 15 25 mph 1022.6mb 46f 47f
1:18 20 23 mph 1022.6mb 46f 47f
1:12 13 18 mph 1022.3mb 46f 49f
1:06 10 15 mph 1022.2mb 46f 49f
1:00 14 17 mph 1022.2mb 46f 49f
12:54 15 20 mph 1022.2mb 46f 49f
12:48 10 17 mph 1022.1mb 46f 48f
12:42 9 14 mph 1021.9mb 46f 48f
12:36 11 14 mph 1021.7mb 46f 47f
12:30 13 17 mph 1021.6mb 46f 47f
12:24 16 20 mph 1021.7mb 46f 47f
12:18 14 18 mph 1021.6mb 46f 47f
12:12 17 22 mph 1021.8mb 46f 48f
12:06 15 17 mph 1021.6mb 46f 49f
12:00 13 18 mph 1021.4mb 46f 49f
11:54 11 18 mph 1021.1mb 46f 49f
11:48 10 18 mph 1020.9mb 46f 49f
11:42 10 15 mph 1020.8mb 46f 49f
11:36 11 15 mph 1020.7mb 46f 48f
11:30 8 14 mph 1020.5mb - 48f
11:24 11 14 mph 1020.3mb - 48f
11:18 13 17 mph 1020.3mb 46f 48f
11:12 11 17 mph 1020.2mb 46f 47f
11:06 15 22 mph 1020.2mb 46f 47f
11:00 11 15 mph 1020mb 46f 48f
10:54 13 18 mph 1019.8mb 46f 48f
10:48 13 15 mph 1019.7mb 46f 48f
10:42 11 14 mph 1019.6mb 46f 47f
10:36 11 15 mph 1019.5mb 46f 47f
10:30 13 18 mph 1019.2mb 46f 47f
10:24 9 10 mph 1019mb 46f 48f
10:18 8 11 mph 1018.9mb 46f 48f
10:12 8 11 mph 1018.9mb 46f 48f
10:06 6 9 mph 1018.8mb 46f 47f
10:00 8 11 mph 1018.7mb 46f 47f
9:54 8 11 mph 1018.7mb 46f 47f
9:48 10 13 mph 1018.6mb 46f 47f
9:42 10 14 mph 1018.6mb 46f 47f
9:36 8 11 mph 1018.5mb 46f 47f
9:30 9 13 mph 1018.5mb 46f 47f
9:24 8 13 mph 1018.5mb 46f 47f
9:18 6 7 mph 1018.3mb 46f 47f
9:12 6 10 mph 1018.2mb 46f 47f
9:06 6 10 mph 1018.1mb 46f 47f
9:00 8 10 mph 1018mb 46f 47f
8:54 6 10 mph 1017.8mb 46f 46f
8:48 7 10 mph 1017.7mb 46f 46f
8:42 7 10 mph 1017.7mb 46f 46f
8:36 7 10 mph 1017.5mb 46f 45f
8:30 7 10 mph 1017.3mb 46f 45f
8:24 6 10 mph 1017.1mb 46f 45f
8:18 7 9 mph 1016.9mb 46f 45f
8:12 7 10 mph 1016.9mb 46f 45f
8:06 7 9 mph 1016.8mb 46f 45f
8:00 5 7 mph 1016.6mb 46f 45f
7:54 3 7 mph 1016.4mb 46f 45f
7:48 6 9 mph 1016.3mb 46f 45f
7:42 6 10 mph 1016.3mb 46f 45f
7:36 6 9 mph 1016.3mb 46f 46f
7:30 9 13 mph 1016.3mb 46f 46f
7:24 11 14 mph 1016.3mb 46f 46f
7:18 3 6 mph 1016.2mb 46f 45f
7:12 6 8 mph 1016mb 46f 46f
7:06 5 8 mph 1015.9mb 46f 45f
7:00 7 10 mph 1015.8mb 46f 45f
6:54 6 9 mph 1015.7mb 46f 45f
6:48 7 10 mph 1015.7mb 46f 45f
6:42 8 13 mph 1015.5mb 46f 45f
6:36 7 9 mph 1015.5mb 46f 45f
6:30 6 8 mph 1015.4mb 46f 45f
6:24 6 9 mph 1015.4mb 46f 45f
6:18 7 11 mph 1015.3mb 46f 45f
6:12 8 10 mph 1015.1mb 46f 45f
6:06 6 9 mph 1015.1mb 46f 45f
6:00 6 10 mph 1014.9mb 46f 45f
5:54 6 9 mph 1014.8mb 46f 45f
5:48 8 11 mph 1014.7mb 46f 45f
5:42 8 13 mph 1014.6mb 46f 45f
5:36 8 11 mph 1014.5mb 46f 45f
5:30 9 13 mph 1014.4mb 46f 45f
5:24 10 14 mph 1014.3mb 46f 45f
5:18 9 13 mph 1014.1mb 46f 45f
5:12 10 17 mph 1014.1mb 46f 45f
5:06 9 14 mph 1014mb 46f 44f
5:00 9 14 mph 1014mb 46f 44f
4:54 8 11 mph 1013.9mb 46f 44f
4:48 8 11 mph 1013.9mb 46f 44f
4:42 9 13 mph 1013.9mb 46f 44f
4:36 8 15 mph 1013.8mb 46f 44f
4:30 10 16 mph 1013.7mb 46f 44f
4:24 11 20 mph 1013.7mb 46f 45f
4:18 13 16 mph 1013.7mb 46f 45f
4:12 10 14 mph 1013.5mb 46f 44f
4:06 9 13 mph 1013.4mb 46f 45f
4:00 9 13 mph 1013.2mb 46f 44f
3:54 8 10 mph 1013.1mb 46f 44f
3:48 7 9 mph 1013.1mb 46f 44f
3:42 7 9 mph 1013mb 46f 44f
3:36 7 10 mph 1013mb 46f 44f
3:30 7 9 mph 1013mb 46f 44f
3:24 6 9 mph 1012.9mb 46f 44f
3:18 7 8 mph 1012.9mb 46f 44f
3:12 6 9 mph 1012.9mb 46f 44f
3:06 6 8 mph 1012.9mb 46f 44f
3:00 5 6 mph 1012.9mb 46f 44f
2:54 6 8 mph 1012.9mb 46f 44f
2:48 6 8 mph 1012.8mb 46f 44f
2:42 6 7 mph 1012.9mb 46f 44f
2:36 6 8 mph 1012.9mb 46f 44f
2:30 6 8 mph 1012.9mb 46f 44f
2:24 5 10 mph 1012.8mb 46f 44f
2:18 9 14 mph 1012.9mb 46f 44f
2:12 14 20 mph 1013mb 46f 45f
2:06 17 28 mph 1013mb 46f 45f
2:00 9 11 mph 1012.5mb 46f 46f
1:54 8 10 mph 1012.2mb 46f 46f
1:48 8 10 mph 1012.2mb 46f 46f
1:42 9 11 mph 1012.2mb 46f 46f
1:36 8 11 mph 1012.3mb 46f 46f
1:30 8 10 mph 1012.3mb 46f 46f
1:24 7 10 mph 1012.2mb 46f 46f
1:18 7 11 mph 1012.2mb 46f 46f
1:12 10 15 mph 1012.2mb 46f 47f
1:06 8 13 mph 1012.1mb 46f 47f
1:00 7 11 mph 1012.1mb 46f 47f
12:54 9 11 mph 1012.1mb 46f 47f
12:48 9 13 mph 1012mb 46f 47f
12:42 7 10 mph 1012mb 46f 47f
12:36 8 10 mph 1011.9mb 46f 47f
12:30 6 9 mph 1011.9mb 46f 47f
12:24 7 8 mph 1011.9mb 46f 47f
12:18 8 10 mph 1011.8mb 46f 47f
12:12 8 10 mph 1011.8mb 46f 47f
12:06 8 10 mph 1011.8mb 46f 47f
12:00 7 13 mph 1011.7mb 46f 47f
So 03/26 11:54 9 11 mph 1011.5mb 46f 47f
11:48 8 13 mph 1011.5mb 46f 47f
11:42 8 11 mph 1011.6mb 46f 47f
11:36 7 11 mph 1011.5mb 46f 47f
11:30 7 9 mph 1011.5mb 46f 47f
11:24 7 16 mph 1011.4mb 46f 47f
11:18 11 16 mph 1011.5mb 46f 47f
11:12 9 14 mph 1011.4mb 46f 47f
11:06 9 15 mph 1011.2mb 46f 47f
11:00 10 15 mph 1011.2mb 46f 47f
10:54 9 13 mph 1011.1mb 46f 47f
10:48 9 14 mph 1011.1mb 46f 47f
10:42 8 13 mph 1011mb 46f 47f
10:36 8 11 mph 1010.9mb 46f 47f
10:30 8 13 mph 1010.8mb 46f 46f
10:24 9 11 mph 1010.7mb 46f 46f
10:18 8 13 mph 1010.6mb 46f 46f
10:12 8 10 mph 1010.7mb 46f 46f
10:06 8 10 mph 1010.7mb 46f 46f
10:00 8 11 mph 1010.7mb 46f 46f
9:54 9 14 mph 1010.6mb 46f 46f
9:48 8 14 mph 1010.5mb 46f 46f
9:42 9 14 mph 1010.4mb 46f 46f
9:36 10 16 mph 1010.4mb 46f 46f
9:30 11 16 mph 1010.5mb 46f 47f
9:24 16 23 mph 1010.6mb 46f 47f
9:18 7 9 mph 1010.4mb 46f 47f
9:12 8 11 mph 1010.2mb 46f 47f
9:06 8 10 mph 1010.2mb 46f 47f
9:00 7 10 mph 1010.1mb 46f 47f
8:54 8 10 mph 1010.1mb 46f 47f
8:48 8 11 mph 1010mb 46f 47f
8:42 8 11 mph 1010mb 46f 47f
8:36 8 10 mph 1010mb 46f 47f
8:30 7 9 mph 1010mb 46f 47f
8:24 7 9 mph 1010mb 46f 47f
8:18 6 10 mph 1010mb 46f 47f
8:12 6 7 mph 1009.9mb 46f 47f
8:06 5 7 mph 1009.9mb 46f 47f
8:00 3 5 mph 1009.8mb 46f 47f
7:54 2 5 mph 1009.6mb 46f 47f
7:48 5 6 mph 1009.6mb 46f 47f
7:42 1 2 mph 1009.6mb 46f 47f
7:36 3 6 mph 1009.6mb 46f 47f
7:30 5 6 mph 1009.5mb 46f 47f
7:24 6 7 mph 1009.5mb 46f 47f
7:18 7 10 mph 1009.4mb 46f 47f
7:12 7 10 mph 1009.3mb 46f 47f
7:06 6 8 mph 1009.2mb 46f 47f
7:00 7 10 mph 1009.1mb 46f 47f
6:54 7 8 mph 1009.1mb 46f 47f
6:48 6 8 mph 1009mb 46f 47f
6:42 6 11 mph 1008.9mb 46f 47f
6:36 9 11 mph 1008.9mb 46f 47f
6:30 9 13 mph 1008.8mb 46f 48f
6:24 11 15 mph 1008.7mb 46f 48f
6:18 8 10 mph 1008.6mb 46f 48f
6:12 8 10 mph 1008.6mb 46f 48f
6:06 6 9 mph 1008.6mb 46f 48f
6:00 6 8 mph 1008.5mb 46f 48f
5:54 6 8 mph 1008.5mb 46f 48f
5:48 6 9 mph 1008.5mb 46f 48f
5:42 7 11 mph 1008.3mb 46f 48f
5:36 8 10 mph 1008.2mb 46f 48f
5:30 7 10 mph 1008.1mb 46f 48f
5:24 8 9 mph 1008mb 46f 48f
5:18 6 8 mph 1007.9mb 46f 48f
5:12 6 9 mph 1007.8mb 46f 47f
5:06 6 10 mph 1007.7mb 46f 47f
5:00 5 7 mph 1007.7mb 46f 47f
4:54 5 8 mph 1007.6mb 46f 47f
4:48 5 6 mph 1007.5mb 46f 47f
4:42 2 5 mph 1007.4mb 46f 47f
4:36 2 5 mph 1007.3mb 46f 47f
4:30 2 5 mph 1007.2mb 47f 47f
4:24 2 5 mph 1007.1mb 47f 47f
4:18 3 8 mph 1006.9mb 47f 47f
4:12 3 6 mph 1006.8mb 47f 47f
4:06 6 10 mph 1006.7mb 47f 47f
4:00 8 11 mph 1006.7mb 47f 47f
3:54 9 14 mph 1006.6mb 47f 47f
3:48 11 14 mph 1006.6mb 47f 48f
3:42 10 17 mph 1006.5mb 47f 48f
3:36 8 14 mph 1006.4mb 47f 49f
3:30 11 17 mph 1006.3mb 47f 50f
3:24 6 16 mph 1006.2mb 47f 49f
3:18 5 9 mph 1006.3mb 46f 48f
3:12 5
mph
1006.3mb 46f 47f
3:06 2 3 mph 1006.3mb 46f 47f
3:00 2 5 mph 1006.3mb 46f 47f
2:54 3 6 mph 1006.2mb 47f 46f
2:48 3 6 mph 1006.2mb 46f 47f
2:42 3 7 mph 1006.1mb 46f 46f
2:36 5 8 mph 1006.2mb 46f 46f
2:30 3 8 mph 1006.2mb 46f 46f
2:24 6 7 mph 1006.3mb 47f 46f
2:18 2 5 mph 1006.4mb 47f 46f
2:12 2 6 mph 1006.5mb 47f 46f
2:06 3 6 mph 1006.4mb 47f 46f
2:00 2 8 mph 1006.5mb 47f 46f
1:54 2 7 mph 1006.5mb 47f 46f
1:48 3 8 mph 1006.5mb 47f 46f
1:42 2 6 mph 1006.5mb 47f 46f
1:36 2 5 mph 1006.5mb 47f 46f
1:30 2 5 mph 1006.5mb 47f 45f
1:24 2 7 mph 1006.5mb 47f 45f
1:18 2 7 mph 1006.5mb 46f 45f
1:12 5 9 mph 1006.5mb 46f 46f
1:06 8 11 mph 1006.6mb 46f 45f
1:00 3 6 mph 1006.6mb 46f 45f
12:54 3 7 mph 1006.6mb 46f 45f